createdAt,value
2018-12-04T00:01:19.746Z,4.70
2018-12-04T00:03:50.699Z,4.83
2018-12-04T00:06:20.358Z,6.43
2018-12-04T00:08:50.582Z,7.43
2018-12-04T00:11:20.670Z,4.67
2018-12-04T00:13:50.605Z,10.10
2018-12-04T00:16:21.069Z,3.93
2018-12-04T00:18:51.917Z,5.90
2018-12-04T00:21:24.593Z,5.73
2018-12-04T00:23:54.524Z,8.20
2018-12-04T00:26:25.832Z,9.37
2018-12-04T00:28:55.650Z,3.40
2018-12-04T00:31:26.094Z,8.97
2018-12-04T00:33:57.471Z,8.83
2018-12-04T00:36:28.819Z,8.77
2018-12-04T00:38:58.599Z,9.67
2018-12-04T00:41:30.272Z,3.00
2018-12-04T00:44:00.313Z,5.90
2018-12-04T00:46:30.461Z,7.90
2018-12-04T00:49:01.805Z,6.13
2018-12-04T00:51:32.050Z,7.03
2018-12-04T00:54:01.761Z,10.43
2018-12-04T00:56:31.942Z,13.40
2018-12-04T00:59:01.922Z,4.83
2018-12-04T01:01:34.935Z,7.53
2018-12-04T01:04:04.878Z,7.23
2018-12-04T01:06:35.525Z,6.57
2018-12-04T01:09:11.373Z,6.40
2018-12-04T01:11:41.208Z,5.07
2018-12-04T01:14:11.773Z,10.90
2018-12-04T01:16:41.577Z,3.87
2018-12-04T01:19:11.878Z,6.73
2018-12-04T01:21:41.594Z,14.10
2018-12-04T01:24:11.975Z,5.97
2018-12-04T01:26:42.690Z,3.57
2018-12-04T01:29:12.889Z,3.10
2018-12-04T01:31:42.559Z,7.10
2018-12-04T01:34:12.626Z,6.40
2018-12-04T01:36:43.206Z,10.07
2018-12-04T01:39:13.054Z,6.60
2018-12-04T01:41:43.049Z,7.70
2018-12-04T01:44:13.069Z,5.00
2018-12-04T01:46:42.902Z,5.90
2018-12-04T01:49:13.165Z,6.20
2018-12-04T01:51:42.900Z,6.00
2018-12-04T01:54:12.550Z,4.27
2018-12-04T01:56:42.877Z,6.17
2018-12-04T01:59:13.006Z,2.33
2018-12-04T02:01:47.721Z,7.37
2018-12-04T02:04:17.293Z,7.87
2018-12-04T02:06:47.890Z,10.70
2018-12-04T02:09:17.749Z,10.10
2018-12-04T02:11:48.324Z,9.97
2018-12-04T02:14:18.164Z,10.07
2018-12-04T02:16:48.281Z,8.50
2018-12-04T02:19:18.881Z,3.67
2018-12-04T02:21:49.001Z,4.80
2018-12-04T02:24:18.990Z,7.33
2018-12-04T02:26:48.897Z,4.30
2018-12-04T02:29:18.961Z,7.87
2018-12-04T02:31:48.833Z,9.67
2018-12-04T02:34:18.575Z,4.47
2018-12-04T02:36:49.375Z,4.37
2018-12-04T02:39:18.985Z,4.17
2018-12-04T02:41:49.001Z,7.20
2018-12-04T02:44:18.752Z,6.00
2018-12-04T02:46:48.483Z,7.90
2018-12-04T02:49:19.695Z,3.17
2018-12-04T02:51:50.141Z,13.80
2018-12-04T02:54:20.329Z,5.43
2018-12-04T02:56:50.392Z,8.47
2018-12-04T02:59:20.467Z,5.53
2018-12-04T03:01:55.024Z,5.07
2018-12-04T03:04:24.898Z,7.20
2018-12-04T03:06:54.912Z,8.20
2018-12-04T03:09:25.073Z,4.13
2018-12-04T03:11:55.420Z,7.30
2018-12-04T03:14:26.887Z,7.27
2018-12-04T03:16:57.269Z,10.23
2018-12-04T03:19:27.909Z,8.33
2018-12-04T03:21:57.819Z,13.93
2018-12-04T03:24:27.699Z,10.43
2018-12-04T03:26:58.444Z,7.50
2018-12-04T03:29:28.477Z,7.60
2018-12-04T03:31:58.589Z,4.10
2018-12-04T03:34:29.456Z,6.73
2018-12-04T03:36:59.966Z,8.10
2018-12-04T03:39:30.715Z,6.80
2018-12-04T03:42:00.872Z,3.50
2018-12-04T03:44:30.994Z,5.83
2018-12-04T03:47:01.512Z,7.50
2018-12-04T03:49:32.452Z,12.57
2018-12-04T03:52:02.917Z,5.53
2018-12-04T03:54:33.285Z,4.20
2018-12-04T03:57:03.672Z,6.67
2018-12-04T03:59:35.802Z,7.10
2018-12-04T04:02:12.367Z,3.90
2018-12-04T04:04:43.526Z,6.63
2018-12-04T04:07:13.488Z,5.10
2018-12-04T04:09:43.462Z,8.20
2018-12-04T04:12:13.688Z,11.43
2018-12-04T04:14:43.807Z,5.80
2018-12-04T04:17:13.638Z,7.80
2018-12-04T04:19:45.237Z,3.10
2018-12-04T04:22:16.039Z,13.93
2018-12-04T04:24:46.026Z,4.40
2018-12-04T04:27:16.863Z,3.80
2018-12-04T04:29:46.867Z,6.73
2018-12-04T04:32:17.060Z,8.40
2018-12-04T04:34:48.148Z,10.50
2018-12-04T04:37:18.795Z,14.70
2018-12-04T04:39:48.903Z,6.27
2018-12-04T04:42:19.182Z,5.37
2018-12-04T04:44:49.728Z,7.90
2018-12-04T04:47:19.817Z,8.60
2018-12-04T04:49:50.025Z,2.97
2018-12-04T04:52:20.981Z,8.13
2018-12-04T04:54:50.740Z,6.93
2018-12-04T04:57:22.181Z,12.33
2018-12-04T04:59:52.199Z,5.40
2018-12-04T05:02:22.109Z,5.23
2018-12-04T05:04:53.292Z,5.40
2018-12-04T05:07:24.180Z,13.87
2018-12-04T05:09:54.451Z,16.40
2018-12-04T05:12:24.610Z,6.43
2018-12-04T05:14:55.664Z,6.50
2018-12-04T05:17:27.046Z,10.13
2018-12-04T05:19:57.640Z,7.00
2018-12-04T05:22:30.153Z,5.53
2018-12-04T05:25:00.277Z,6.43
2018-12-04T05:27:30.487Z,2.53
2018-12-04T05:30:00.654Z,2.37
2018-12-04T05:32:30.834Z,6.83
2018-12-04T05:35:01.388Z,10.60
2018-12-04T05:37:31.766Z,5.63
2018-12-04T05:40:01.980Z,6.70
2018-12-04T05:42:32.241Z,6.47
2018-12-04T05:45:03.621Z,15.60
2018-12-04T05:47:34.017Z,7.50
2018-12-04T05:50:04.033Z,5.50
2018-12-04T05:52:35.016Z,6.40
2018-12-04T05:55:06.059Z,7.13
2018-12-04T05:57:36.209Z,5.10
2018-12-04T06:00:08.652Z,6.43
2018-12-04T06:02:39.777Z,10.30
2018-12-04T06:05:11.127Z,8.07
2018-12-04T06:07:43.327Z,5.73
2018-12-04T06:10:14.629Z,6.43
2018-12-04T06:12:45.284Z,10.77
2018-12-04T06:15:17.533Z,5.20
2018-12-04T06:17:47.564Z,5.10
2018-12-04T06:20:17.628Z,5.37
2018-12-04T06:22:48.181Z,5.57
2018-12-04T06:25:22.591Z,9.57
2018-12-04T06:27:53.433Z,6.27
2018-12-04T06:30:23.418Z,5.60
2018-12-04T06:32:53.950Z,5.10
2018-12-04T06:35:24.146Z,9.03
2018-12-04T06:37:53.998Z,16.40
2018-12-04T06:40:23.850Z,10.27
2018-12-04T06:42:53.913Z,7.37
2018-12-04T06:45:25.433Z,9.80
2018-12-04T06:47:56.141Z,5.20
2018-12-04T06:50:28.838Z,5.90
2018-12-04T06:52:59.934Z,2.87
2018-12-04T06:55:30.039Z,5.20
2018-12-04T06:58:00.369Z,5.33
2018-12-04T07:00:30.925Z,4.30
2018-12-04T07:03:01.264Z,7.83
2018-12-04T07:05:32.028Z,8.23
2018-12-04T07:08:02.265Z,2.90
2018-12-04T07:10:32.475Z,6.97
2018-12-04T07:13:03.086Z,6.60
2018-12-04T07:15:35.066Z,8.80
2018-12-04T07:18:06.041Z,8.00
2018-12-04T07:20:36.128Z,7.80
2018-12-04T07:23:06.590Z,8.80
2018-12-04T07:25:36.677Z,7.50
2018-12-04T07:28:06.816Z,5.20
2018-12-04T07:30:39.984Z,6.10
2018-12-04T07:33:10.604Z,11.17
2018-12-04T07:35:41.492Z,11.90
2018-12-04T07:38:11.233Z,6.33
2018-12-04T07:40:43.559Z,6.50
2018-12-04T07:43:14.637Z,8.43
2018-12-04T07:45:44.841Z,8.43
2018-12-04T07:48:14.962Z,2.73
2018-12-04T07:50:46.165Z,10.63
2018-12-04T07:53:21.804Z,6.30
2018-12-04T07:55:53.597Z,6.93
2018-12-04T07:58:23.557Z,14.83
2018-12-04T08:00:53.798Z,9.40
2018-12-04T08:03:23.978Z,7.30
2018-12-04T08:05:54.377Z,10.90
2018-12-04T08:08:25.040Z,18.23
2018-12-04T08:10:57.032Z,10.27
2018-12-04T08:13:28.253Z,7.97
2018-12-04T08:15:58.435Z,15.13
2018-12-04T08:18:28.768Z,7.80
2018-12-04T08:20:58.947Z,11.17
2018-12-04T08:23:30.236Z,8.80
2018-12-04T08:26:01.410Z,6.17
2018-12-04T08:28:31.937Z,14.23
2018-12-04T08:31:02.877Z,15.03
2018-12-04T08:33:35.729Z,8.33
2018-12-04T08:36:06.057Z,6.93
2018-12-04T08:38:37.300Z,9.03
2018-12-04T08:41:07.860Z,18.37
2018-12-04T08:43:38.305Z,8.37
2018-12-04T08:46:09.151Z,11.73
2018-12-04T08:48:41.980Z,5.03
2018-12-04T08:51:12.121Z,9.30
2018-12-04T08:53:44.249Z,15.50
2018-12-04T08:56:14.481Z,10.60
2018-12-04T08:58:45.275Z,9.50
2018-12-04T09:01:17.593Z,14.10
2018-12-04T09:03:48.554Z,9.70
2018-12-04T09:06:19.590Z,4.43
2018-12-04T09:08:49.881Z,12.43
2018-12-04T09:11:24.126Z,9.10
2018-12-04T09:13:54.310Z,11.43
2018-12-04T09:16:26.333Z,13.73
2018-12-04T09:18:58.295Z,8.20
2018-12-04T09:21:28.776Z,7.50
2018-12-04T09:24:00.596Z,6.10
2018-12-04T09:26:30.585Z,6.33
2018-12-04T09:29:01.405Z,5.03
2018-12-04T09:31:32.974Z,6.40
2018-12-04T09:34:04.610Z,8.70
2018-12-04T09:36:36.040Z,7.23
2018-12-04T09:39:09.788Z,7.10
2018-12-04T09:41:39.776Z,5.43
2018-12-04T09:44:10.325Z,12.07
2018-12-04T09:46:40.985Z,9.20
2018-12-04T09:49:12.179Z,9.77
2018-12-04T09:54:22.302Z,7.23
2018-12-04T09:56:53.032Z,6.23
2018-12-04T09:59:23.826Z,7.53
2018-12-04T10:04:54.486Z,6.07
2018-12-04T10:07:25.738Z,5.17
2018-12-04T10:10:00.624Z,6.60
2018-12-04T10:12:29.506Z,12.10
2018-12-04T10:14:59.936Z,12.20
2018-12-04T10:17:30.093Z,8.60
2018-12-04T10:20:02.069Z,9.40
2018-12-04T10:22:33.814Z,4.10
2018-12-04T10:25:04.043Z,7.73
2018-12-04T10:27:36.730Z,5.87
2018-12-04T10:30:09.266Z,6.40
2018-12-04T10:32:40.811Z,3.77
2018-12-04T10:35:11.676Z,6.30
2018-12-04T10:37:42.888Z,6.47
2018-12-04T10:40:16.613Z,2.90
2018-12-04T10:42:47.112Z,8.43
2018-12-04T10:45:18.625Z,3.17
2018-12-04T10:47:49.100Z,4.37
2018-12-04T10:50:19.182Z,8.23
2018-12-04T10:52:49.253Z,4.43
2018-12-04T10:55:20.331Z,9.20
2018-12-04T10:57:50.416Z,8.13
2018-12-04T11:00:26.487Z,3.63
2018-12-04T11:03:02.296Z,5.77
2018-12-04T11:05:33.250Z,2.43
2018-12-04T11:08:03.458Z,5.30
2018-12-04T11:10:33.583Z,5.40
2018-12-04T11:13:03.974Z,6.37
2018-12-04T11:15:35.458Z,6.60
2018-12-04T11:18:05.756Z,5.00
2018-12-04T11:20:37.332Z,7.80
2018-12-04T11:23:07.528Z,7.30
2018-12-04T11:25:37.597Z,8.20
2018-12-04T11:28:08.058Z,3.87
2018-12-04T11:30:38.413Z,3.07
2018-12-04T11:33:09.625Z,4.70
2018-12-04T11:35:39.928Z,8.80
2018-12-04T11:38:09.873Z,7.67
2018-12-04T11:40:40.483Z,6.37
2018-12-04T11:43:12.227Z,4.30
2018-12-04T11:45:42.732Z,4.07
2018-12-04T11:48:15.646Z,6.13
2018-12-04T11:50:46.957Z,5.73
2018-12-04T11:53:17.830Z,2.60
2018-12-04T11:55:47.847Z,6.47
2018-12-04T11:58:18.642Z,3.97
2018-12-04T12:00:48.627Z,4.50
2018-12-04T12:03:19.258Z,6.30
2018-12-04T12:05:52.829Z,7.40
2018-12-04T12:08:24.876Z,4.17
2018-12-04T12:10:55.082Z,4.77
2018-12-04T12:13:25.502Z,6.87
2018-12-04T12:15:57.302Z,4.30
2018-12-04T12:18:29.783Z,4.07
2018-12-04T12:21:04.879Z,6.80
2018-12-04T12:23:35.980Z,6.13
2018-12-04T12:26:08.257Z,3.60
2018-12-04T12:28:38.979Z,7.20
2018-12-04T12:31:12.071Z,7.13
2018-12-04T12:33:44.690Z,5.10
2018-12-04T12:36:23.425Z,6.97
2018-12-04T12:39:00.517Z,3.13
2018-12-04T12:41:34.699Z,5.67
2018-12-04T12:44:10.709Z,10.73
2018-12-04T12:46:42.049Z,4.30
2018-12-04T12:49:12.359Z,11.40
2018-12-04T12:51:43.117Z,4.57
2018-12-04T12:54:13.755Z,7.90
2018-12-04T12:56:44.374Z,11.90
2018-12-04T12:59:16.015Z,7.57
2018-12-04T13:01:52.965Z,7.77
2018-12-04T13:04:26.359Z,5.40
2018-12-04T13:07:01.823Z,7.53
2018-12-04T13:09:32.009Z,4.13
2018-12-04T13:12:02.232Z,6.80
2018-12-04T13:14:32.292Z,5.13
2018-12-04T13:17:03.585Z,7.53
2018-12-04T13:19:33.889Z,4.17
2018-12-04T13:22:04.537Z,13.00
2018-12-04T13:24:35.025Z,10.90
2018-12-04T13:27:06.777Z,5.90
2018-12-04T13:29:37.862Z,5.10
2018-12-04T13:32:08.171Z,8.23
2018-12-04T13:34:39.142Z,6.20
2018-12-04T13:37:09.112Z,6.70
2018-12-04T13:39:39.793Z,5.93
2018-12-04T13:42:11.330Z,3.93
2018-12-04T13:44:42.440Z,9.17
2018-12-04T13:47:13.757Z,6.37
2018-12-04T13:49:47.784Z,6.60
2018-12-04T13:52:21.482Z,9.57
2018-12-04T13:54:51.511Z,3.77
2018-12-04T13:57:21.868Z,4.90
2018-12-04T13:59:52.181Z,3.47
2018-12-04T14:02:22.822Z,5.47
2018-12-04T14:04:53.699Z,4.73
2018-12-04T14:07:25.291Z,6.83
2018-12-04T14:09:57.086Z,8.20
2018-12-04T14:12:27.089Z,3.87
2018-12-04T14:14:57.977Z,5.03
2018-12-04T14:17:28.213Z,9.43
2018-12-04T14:19:58.920Z,6.33
2018-12-04T14:22:29.401Z,5.40
2018-12-04T14:25:01.068Z,5.37
2018-12-04T14:27:33.771Z,11.47
2018-12-04T14:30:05.999Z,8.47
2018-12-04T14:32:37.175Z,7.00
2018-12-04T14:35:09.828Z,6.23
2018-12-04T14:37:41.187Z,3.27
2018-12-04T14:40:12.115Z,3.77
2018-12-04T14:42:43.616Z,5.50
2018-12-04T14:45:16.018Z,11.13
2018-12-04T14:47:47.525Z,7.73
2018-12-04T14:50:18.898Z,3.90
2018-12-04T14:52:52.003Z,5.97
2018-12-04T14:55:22.897Z,6.83
2018-12-04T14:58:00.838Z,5.97
2018-12-04T15:00:33.325Z,8.67
2018-12-04T15:03:04.075Z,5.13
2018-12-04T15:05:36.624Z,6.50
2018-12-04T15:08:07.587Z,5.33
2018-12-04T15:10:39.989Z,4.13
2018-12-04T15:13:10.203Z,7.63
2018-12-04T15:15:41.372Z,8.50
2018-12-04T15:18:12.123Z,7.60
2018-12-04T15:20:43.357Z,6.03
2018-12-04T15:23:15.445Z,5.97
2018-12-04T15:25:47.326Z,7.23
2018-12-04T15:28:18.776Z,3.47
2018-12-04T15:30:49.353Z,6.83
2018-12-04T15:33:19.489Z,3.77
2018-12-04T15:35:50.226Z,9.97
2018-12-04T15:38:21.217Z,6.03
2018-12-04T15:40:51.630Z,6.53
2018-12-04T15:43:23.378Z,12.60
2018-12-04T15:45:59.414Z,4.27
2018-12-04T15:48:30.605Z,12.00
2018-12-04T15:51:01.464Z,10.07
2018-12-04T15:53:32.069Z,6.43
2018-12-04T15:56:02.757Z,9.73
2018-12-04T15:58:33.108Z,7.20
2018-12-04T16:01:03.531Z,5.47
2018-12-04T16:03:34.002Z,3.40
2018-12-04T16:06:06.784Z,4.87
2018-12-04T16:08:37.031Z,8.40
2018-12-04T16:11:08.931Z,8.37
2018-12-04T16:13:41.022Z,5.83
2018-12-04T16:16:11.224Z,6.07
2018-12-04T16:18:41.969Z,5.73
2018-12-04T16:21:12.226Z,6.63
2018-12-04T16:23:42.369Z,6.23
2018-12-04T16:26:14.999Z,4.43
2018-12-04T16:28:45.250Z,5.80
2018-12-04T16:31:16.417Z,9.37
2018-12-04T16:33:48.041Z,3.83
2018-12-04T16:36:20.289Z,5.53
2018-12-04T16:38:50.484Z,9.73
2018-12-04T16:41:22.220Z,8.87
2018-12-04T16:43:54.250Z,6.13
2018-12-04T16:46:25.426Z,8.43
2018-12-04T16:48:57.449Z,6.07
2018-12-04T16:51:28.698Z,8.07
2018-12-04T16:54:00.685Z,7.13
2018-12-04T16:56:31.653Z,9.93
2018-12-04T16:59:02.072Z,6.07
2018-12-04T17:01:33.997Z,6.77
2018-12-04T17:04:05.938Z,4.87
2018-12-04T17:06:37.003Z,7.47
2018-12-04T17:09:09.070Z,7.73
2018-12-04T17:11:39.682Z,6.03
2018-12-04T17:14:10.666Z,6.47
2018-12-04T17:16:41.404Z,15.13
2018-12-04T17:19:13.644Z,4.80
2018-12-04T17:21:44.665Z,6.43
2018-12-04T17:24:16.028Z,5.87
2018-12-04T17:26:47.174Z,8.57
2018-12-04T17:29:18.846Z,8.30
2018-12-04T17:31:50.653Z,4.70
2018-12-04T17:34:23.664Z,5.40
2018-12-04T17:36:55.152Z,4.10
2018-12-04T17:39:26.559Z,5.73
2018-12-04T17:41:57.378Z,8.50
2018-12-04T17:44:28.789Z,6.40
2018-12-04T17:47:02.670Z,9.03
2018-12-04T17:49:35.180Z,5.17
2018-12-04T17:52:06.912Z,7.90
2018-12-04T17:54:37.769Z,7.07
2018-12-04T17:57:09.354Z,7.20
2018-12-04T17:59:41.859Z,10.33
2018-12-04T18:02:14.896Z,6.43
2018-12-04T18:04:45.114Z,5.10
2018-12-04T18:07:17.353Z,10.57
2018-12-04T18:09:47.794Z,14.73
2018-12-04T18:12:18.618Z,8.20
2018-12-04T18:14:49.048Z,11.90
2018-12-04T18:17:20.867Z,8.90
2018-12-04T18:19:51.613Z,6.00
2018-12-04T18:22:22.066Z,9.77
2018-12-04T18:24:52.641Z,11.70
2018-12-04T18:27:23.509Z,16.50
2018-12-04T18:29:54.756Z,12.07
2018-12-04T18:32:26.363Z,15.60
2018-12-04T18:34:56.954Z,14.43
2018-12-04T18:37:28.254Z,11.37
2018-12-04T18:40:01.054Z,8.93
2018-12-04T18:42:31.454Z,15.20
2018-12-04T18:45:02.268Z,12.43
2018-12-04T18:47:33.719Z,10.63
2018-12-04T18:50:06.394Z,17.67
2018-12-04T18:52:39.775Z,18.77
2018-12-04T18:55:16.493Z,19.83
2018-12-04T18:57:46.885Z,28.23
2018-12-04T19:00:17.604Z,22.17
2018-12-04T19:02:48.566Z,28.13
2018-12-04T19:05:21.517Z,23.00
2018-12-04T19:07:52.913Z,23.57
2018-12-04T19:10:23.378Z,25.50
2018-12-04T19:12:54.185Z,26.20
2018-12-04T19:15:25.951Z,31.00
2018-12-04T19:17:56.585Z,25.50
2018-12-04T19:20:29.040Z,29.43
2018-12-04T19:23:00.517Z,24.10
2018-12-04T19:25:30.549Z,35.70
2018-12-04T19:28:02.196Z,29.20
2018-12-04T19:30:33.856Z,32.70
2018-12-04T19:33:04.445Z,40.30
2018-12-04T19:35:34.669Z,34.53
2018-12-04T19:38:08.697Z,36.60
2018-12-04T19:40:40.143Z,46.43
2018-12-04T19:43:12.063Z,50.13
2018-12-04T19:45:42.288Z,59.23
2018-12-04T19:48:12.864Z,56.00
2018-12-04T19:50:43.930Z,55.30
2018-12-04T19:53:16.380Z,63.90
2018-12-04T19:56:52.667Z,51.47
2018-12-04T19:59:23.243Z,48.60
2018-12-04T20:01:56.905Z,52.40
2018-12-04T20:04:28.099Z,45.00
2018-12-04T20:06:59.089Z,38.00
2018-12-04T20:09:29.351Z,37.10
2018-12-04T20:12:01.008Z,36.07
2018-12-04T20:14:31.258Z,38.07
2018-12-04T20:17:03.605Z,35.90
2018-12-04T20:19:34.261Z,27.67
2018-12-04T20:22:04.861Z,27.53
2018-12-04T20:24:35.771Z,31.10
2018-12-04T20:27:07.442Z,39.43
2018-12-04T20:29:37.964Z,41.90
2018-12-04T20:32:09.598Z,33.53
2018-12-04T20:34:40.672Z,31.87
2018-12-04T20:37:12.703Z,35.80
2018-12-04T20:39:45.648Z,36.80
2018-12-04T20:42:23.063Z,38.63
2018-12-04T20:44:49.818Z,41.27
2018-12-04T20:47:22.557Z,45.90
2018-12-04T20:49:53.522Z,49.33
2018-12-04T20:52:25.606Z,44.10
2018-12-04T20:54:58.027Z,44.27
2018-12-04T20:57:29.060Z,39.40
2018-12-04T21:00:00.202Z,49.80
2018-12-04T21:02:30.929Z,47.43
2018-12-04T21:05:02.809Z,45.53
2018-12-04T21:07:34.958Z,41.40
2018-12-04T21:10:06.468Z,54.17
2018-12-04T21:12:37.594Z,42.90
2018-12-04T21:15:10.804Z,55.57
2018-12-04T21:18:12.637Z,41.77
2018-12-04T21:20:44.391Z,43.70
2018-12-04T21:23:14.597Z,42.20
2018-12-04T21:25:45.017Z,40.43
2018-12-04T21:28:20.167Z,38.50
2018-12-04T21:30:56.464Z,38.63
2018-12-04T21:35:39.197Z,43.70
2018-12-04T21:38:16.463Z,27.70
2018-12-04T21:40:52.121Z,30.23
2018-12-04T21:43:30.072Z,28.10
2018-12-04T21:46:05.845Z,29.43
2018-12-04T21:48:36.830Z,24.07
2018-12-04T21:51:07.972Z,28.53
2018-12-04T21:53:39.300Z,30.07
2018-12-04T21:56:09.656Z,18.33
2018-12-04T21:58:40.681Z,30.57
2018-12-04T22:01:10.759Z,25.40
2018-12-04T22:03:41.292Z,27.73
2018-12-04T22:06:11.778Z,24.80
2018-12-04T22:08:43.501Z,27.43
2018-12-04T22:11:14.425Z,26.73
2018-12-04T22:13:44.949Z,29.73
2018-12-04T22:16:15.156Z,27.20
2018-12-04T22:18:45.854Z,19.37
2018-12-04T22:21:16.849Z,28.70
2018-12-04T22:23:46.901Z,25.67
2018-12-04T22:26:17.308Z,24.43
2018-12-04T22:28:49.709Z,29.67
2018-12-04T22:31:20.717Z,25.60
2018-12-04T22:33:51.681Z,25.60
2018-12-04T22:36:21.969Z,24.43
2018-12-04T22:38:55.816Z,26.30
2018-12-04T22:41:26.180Z,23.80
2018-12-04T22:43:58.091Z,21.37
2018-12-04T22:46:29.477Z,24.40
2018-12-04T22:49:03.287Z,23.57
2018-12-04T22:51:34.208Z,27.43
2018-12-04T22:54:05.641Z,27.20
2018-12-04T22:56:35.900Z,23.87
2018-12-04T22:59:07.855Z,24.50
2018-12-04T23:01:41.198Z,16.50
2018-12-04T23:04:12.524Z,29.10
2018-12-04T23:06:42.781Z,22.17
2018-12-04T23:09:14.766Z,18.07
2018-12-04T23:11:46.138Z,17.70
2018-12-04T23:14:16.557Z,21.17
2018-12-04T23:16:47.202Z,21.83
2018-12-04T23:19:18.328Z,16.70
2018-12-04T23:21:48.440Z,25.40
2018-12-04T23:24:18.756Z,17.87
2018-12-04T23:26:48.979Z,19.43
2018-12-04T23:29:20.128Z,23.80
2018-12-04T23:31:50.524Z,20.17
2018-12-04T23:34:20.925Z,20.73
2018-12-04T23:36:50.853Z,16.97
2018-12-04T23:39:20.584Z,17.43
2018-12-04T23:41:50.841Z,21.40
2018-12-04T23:44:23.440Z,20.50
2018-12-04T23:46:54.624Z,25.83
2018-12-04T23:49:25.543Z,19.90
2018-12-04T23:51:56.329Z,29.73
2018-12-04T23:54:26.247Z,17.83
2018-12-04T23:56:56.556Z,17.40
2018-12-04T23:59:26.744Z,17.27
